createdAt,value
2023-04-06T00:00:13.336Z,90.90
2023-04-06T00:00:45.253Z,90.90
2023-04-06T00:01:17.124Z,90.90
2023-04-06T00:01:49.022Z,91.00
2023-04-06T00:02:22.979Z,90.90
2023-04-06T00:02:54.918Z,90.90
2023-04-06T00:03:26.882Z,90.90
2023-04-06T00:03:58.802Z,91.00
2023-04-06T00:05:03.007Z,91.00
2023-04-06T00:05:34.825Z,91.00
2023-04-06T00:06:06.868Z,90.90
2023-04-06T00:07:10.964Z,90.90
2023-04-06T00:07:42.722Z,91.00
2023-04-06T00:08:46.911Z,90.90
2023-04-06T00:09:18.731Z,90.90
2023-04-06T00:10:22.763Z,90.90
2023-04-06T00:10:54.617Z,90.90
2023-04-06T00:11:58.880Z,91.00
2023-04-06T00:12:30.922Z,91.40
2023-04-06T00:13:02.751Z,91.00
2023-04-06T00:13:34.536Z,91.00
2023-04-06T00:14:38.603Z,91.10
2023-04-06T00:15:11.053Z,91.50
2023-04-06T00:15:42.874Z,91.40
2023-04-06T00:16:14.810Z,91.60
2023-04-06T00:16:46.633Z,91.20
2023-04-06T00:17:18.809Z,91.30
2023-04-06T00:17:50.698Z,91.50
2023-04-06T00:18:23.383Z,91.50
2023-04-06T00:18:55.218Z,91.30
2023-04-06T00:19:27.249Z,91.60
2023-04-06T00:19:59.019Z,91.60
2023-04-06T00:20:31.163Z,91.30
2023-04-06T00:21:03.132Z,91.60
2023-04-06T00:21:34.929Z,91.70
2023-04-06T00:22:06.779Z,91.40
2023-04-06T00:22:38.617Z,91.60
2023-04-06T00:23:10.472Z,91.40
2023-04-06T00:23:43.077Z,91.60
2023-04-06T00:24:14.864Z,91.70
2023-04-06T00:24:46.958Z,91.30
2023-04-06T00:25:18.883Z,91.60
2023-04-06T00:25:50.825Z,91.70
2023-04-06T00:26:22.701Z,91.70
2023-04-06T00:26:56.104Z,91.70
2023-04-06T00:27:28.084Z,91.60
2023-04-06T00:27:59.859Z,91.60
2023-04-06T00:28:31.724Z,91.60
2023-04-06T00:29:03.648Z,91.40
2023-04-06T00:29:35.764Z,91.70
2023-04-06T00:30:08.519Z,91.60
2023-04-06T00:30:40.884Z,91.60
2023-04-06T00:31:12.698Z,91.60
2023-04-06T00:31:44.487Z,91.70
2023-04-06T00:32:16.552Z,91.70
2023-04-06T00:32:48.530Z,91.80
2023-04-06T00:33:20.628Z,91.40
2023-04-06T00:33:52.544Z,91.60
2023-04-06T00:34:24.372Z,91.60
2023-04-06T00:34:56.224Z,91.60
2023-04-06T00:35:28.061Z,91.70
2023-04-06T00:36:00.238Z,91.70
2023-04-06T00:36:32.435Z,91.70
2023-04-06T00:37:04.276Z,91.70
2023-04-06T00:37:36.430Z,91.40
2023-04-06T00:38:08.245Z,91.70
2023-04-06T00:38:40.056Z,91.60
2023-04-06T00:39:11.835Z,91.70
2023-04-06T00:39:44.039Z,91.70
2023-04-06T00:40:16.337Z,91.80
2023-04-06T00:40:48.301Z,91.70
2023-04-06T00:41:21.646Z,91.40
2023-04-06T00:41:54.455Z,91.80
2023-04-06T00:42:26.945Z,91.40
2023-04-06T00:42:58.910Z,91.70
2023-04-06T00:43:30.808Z,91.70
2023-04-06T00:44:02.652Z,91.40
2023-04-06T00:44:34.572Z,91.70
2023-04-06T00:45:06.735Z,91.70
2023-04-06T00:45:42.353Z,91.40
2023-04-06T00:46:14.300Z,91.60
2023-04-06T00:47:18.790Z,91.10
2023-04-06T00:47:50.839Z,91.40
2023-04-06T00:48:22.686Z,91.40
2023-04-06T00:48:54.489Z,91.50
2023-04-06T00:49:26.332Z,91.40
2023-04-06T00:49:58.452Z,91.40
2023-04-06T00:50:30.744Z,91.70
2023-04-06T00:51:03.133Z,91.50
2023-04-06T00:51:34.943Z,91.70
2023-04-06T00:52:06.855Z,91.40
2023-04-06T00:52:38.937Z,91.50
2023-04-06T00:53:13.169Z,91.40
2023-04-06T00:54:18.509Z,91.40
2023-04-06T00:54:51.541Z,91.70
2023-04-06T00:55:25.422Z,91.40
2023-04-06T00:55:57.256Z,91.40
2023-04-06T00:56:29.385Z,91.30
2023-04-06T00:57:01.401Z,91.20
2023-04-06T00:58:14.263Z,91.10
2023-04-06T00:59:30.446Z,91.20
2023-04-06T01:00:05.520Z,91.20
2023-04-06T01:00:38.280Z,91.30
2023-04-06T01:01:12.154Z,91.30
2023-04-06T01:02:40.346Z,91.10
2023-04-06T01:04:23.720Z,91.30
2023-04-06T01:05:41.275Z,91.20
2023-04-06T01:06:17.821Z,91.10
2023-04-06T01:07:29.465Z,91.10
2023-04-06T01:08:21.807Z,91.20
2023-04-06T01:09:31.596Z,91.10
2023-04-06T01:10:06.871Z,91.10
2023-04-06T01:10:40.342Z,91.20
2023-04-06T01:11:19.264Z,91.10
2023-04-06T01:12:28.414Z,91.10
2023-04-06T01:14:05.115Z,91.00
2023-04-06T01:14:54.486Z,91.30
2023-04-06T01:15:27.925Z,91.40
2023-04-06T01:16:44.349Z,91.30
2023-04-06T01:17:52.501Z,91.20
2023-04-06T01:18:28.757Z,91.20
2023-04-06T01:19:13.535Z,91.00
2023-04-06T01:19:52.143Z,91.10
2023-04-06T01:21:04.756Z,91.10
2023-04-06T01:21:37.763Z,91.20
2023-04-06T01:22:28.150Z,91.30
2023-04-06T01:23:06.138Z,90.60
2023-04-06T01:23:38.636Z,91.40
2023-04-06T01:25:08.035Z,91.20
2023-04-06T01:26:06.177Z,91.40
2023-04-06T01:27:14.303Z,91.20
2023-04-06T01:27:58.079Z,91.20
2023-04-06T01:28:42.632Z,91.30
2023-04-06T01:29:27.428Z,91.20
2023-04-06T01:30:00.305Z,91.20
2023-04-06T01:30:42.837Z,91.10
2023-04-06T01:31:25.956Z,91.20
2023-04-06T01:31:58.078Z,91.20
2023-04-06T01:33:03.103Z,91.20
2023-04-06T01:34:00.097Z,91.10
2023-04-06T01:35:08.973Z,91.30
2023-04-06T01:35:46.351Z,91.20
2023-04-06T01:37:35.877Z,91.00
2023-04-06T01:38:43.306Z,91.00
2023-04-06T01:39:15.553Z,91.10
2023-04-06T01:41:01.940Z,91.00
2023-04-06T01:41:39.458Z,91.20
2023-04-06T01:42:11.509Z,91.10
2023-04-06T01:42:44.926Z,91.10
2023-04-06T01:43:21.453Z,91.50
2023-04-06T01:44:09.595Z,91.30
2023-04-06T01:44:41.591Z,92.00
2023-04-06T01:45:17.512Z,91.30
2023-04-06T01:45:50.549Z,91.30
2023-04-06T01:46:25.929Z,91.30
2023-04-06T01:46:57.926Z,91.40
2023-04-06T01:47:30.324Z,91.40
2023-04-06T01:48:04.985Z,91.40
2023-04-06T01:49:19.469Z,91.30
2023-04-06T01:49:55.771Z,91.30
2023-04-06T01:50:28.189Z,91.30
2023-04-06T01:51:00.097Z,91.30
2023-04-06T01:51:36.233Z,91.20
2023-04-06T01:52:11.343Z,91.20
2023-04-06T01:53:19.262Z,91.40
2023-04-06T01:53:52.165Z,91.20
2023-04-06T01:54:26.529Z,91.30
2023-04-06T01:55:30.837Z,91.40
2023-04-06T01:56:28.908Z,91.50
2023-04-06T01:57:11.971Z,91.60
2023-04-06T01:57:51.658Z,91.60
2023-04-06T01:58:36.255Z,91.70
2023-04-06T01:59:09.366Z,91.60
2023-04-06T01:59:45.313Z,91.50
2023-04-06T02:00:27.030Z,91.60
2023-04-06T02:01:00.395Z,91.80
2023-04-06T02:01:35.804Z,91.70
2023-04-06T02:02:07.781Z,91.70
2023-04-06T02:02:40.922Z,91.90
2023-04-06T02:03:19.176Z,91.70
2023-04-06T02:03:52.131Z,92.10
2023-04-06T02:04:24.131Z,92.00
2023-04-06T02:05:00.714Z,91.70
2023-04-06T02:05:38.871Z,92.00
2023-04-06T02:06:21.687Z,92.00
2023-04-06T02:06:54.230Z,92.00
2023-04-06T02:08:01.743Z,91.70
2023-04-06T02:08:38.141Z,91.70
2023-04-06T02:09:10.210Z,91.80
2023-04-06T02:09:42.030Z,92.00
2023-04-06T02:10:51.639Z,91.80
2023-04-06T02:11:32.647Z,92.00
2023-04-06T02:12:04.672Z,91.70
2023-04-06T02:12:38.501Z,92.00
2023-04-06T02:13:13.394Z,91.80
2023-04-06T02:14:26.013Z,91.80
2023-04-06T02:15:00.412Z,91.80
2023-04-06T02:15:32.297Z,91.90
2023-04-06T02:16:04.733Z,91.90
2023-04-06T02:16:36.701Z,91.70
2023-04-06T02:17:08.605Z,92.10
2023-04-06T02:17:41.514Z,91.70
2023-04-06T02:18:13.336Z,91.70
2023-04-06T02:18:46.213Z,91.80
2023-04-06T02:19:18.172Z,91.70
2023-04-06T02:19:49.922Z,91.70
2023-04-06T02:20:21.875Z,92.00
2023-04-06T02:20:53.724Z,92.00
2023-04-06T02:21:25.577Z,92.00
2023-04-06T02:21:57.575Z,91.70
2023-04-06T02:22:29.341Z,91.70
2023-04-06T02:23:01.474Z,91.60
2023-04-06T02:23:33.677Z,91.70
2023-04-06T02:24:05.738Z,91.80
2023-04-06T02:24:37.846Z,91.80
2023-04-06T02:25:10.009Z,91.80
2023-04-06T02:25:42.152Z,91.90
2023-04-06T02:26:14.728Z,92.10
2023-04-06T02:26:46.566Z,91.70
2023-04-06T02:27:18.336Z,91.70
2023-04-06T02:27:52.428Z,91.70
2023-04-06T02:28:56.427Z,91.80
2023-04-06T02:29:28.329Z,91.70
2023-04-06T02:30:00.547Z,91.60
2023-04-06T02:30:33.596Z,91.60
2023-04-06T02:31:05.421Z,91.60
2023-04-06T02:31:37.320Z,91.60
2023-04-06T02:32:10.399Z,91.60
2023-04-06T02:32:42.265Z,91.60
2023-04-06T02:33:14.446Z,91.70
2023-04-06T02:33:49.809Z,91.70
2023-04-06T02:34:22.336Z,91.90
2023-04-06T02:34:56.829Z,92.10
2023-04-06T02:35:32.396Z,92.90
2023-04-06T02:36:04.755Z,91.80
2023-04-06T02:36:36.667Z,92.20
2023-04-06T02:37:08.481Z,91.90
2023-04-06T02:37:41.674Z,91.90
2023-04-06T02:38:13.466Z,91.80
2023-04-06T02:38:45.364Z,92.20
2023-04-06T02:39:18.019Z,91.90
2023-04-06T02:39:49.878Z,92.00
2023-04-06T02:40:21.925Z,91.90
2023-04-06T02:40:53.770Z,92.10
2023-04-06T02:41:31.020Z,92.50
2023-04-06T02:42:36.562Z,91.90
2023-04-06T02:43:09.190Z,92.30
2023-04-06T02:43:41.064Z,92.00
2023-04-06T02:44:23.227Z,92.40
2023-04-06T02:44:55.229Z,92.00
2023-04-06T02:45:30.600Z,92.00
2023-04-06T02:46:02.550Z,92.20
2023-04-06T02:46:37.004Z,92.00
2023-04-06T02:47:09.361Z,92.30
2023-04-06T02:47:43.086Z,92.00
2023-04-06T02:48:16.506Z,92.40
2023-04-06T02:48:48.312Z,92.60
2023-04-06T02:49:20.175Z,92.20
2023-04-06T02:49:51.999Z,92.10
2023-04-06T02:50:23.975Z,92.10
2023-04-06T02:51:03.279Z,92.20
2023-04-06T02:51:35.112Z,92.50
2023-04-06T02:52:29.937Z,92.30
2023-04-06T02:53:02.368Z,92.10
2023-04-06T02:53:34.445Z,92.10
2023-04-06T02:54:06.346Z,92.10
2023-04-06T02:54:38.260Z,92.20
2023-04-06T02:55:10.937Z,92.20
2023-04-06T02:55:42.795Z,91.70
2023-04-06T02:56:14.609Z,92.50
2023-04-06T02:56:53.687Z,92.60
2023-04-06T02:57:26.199Z,92.40
2023-04-06T02:57:58.092Z,92.30
2023-04-06T02:58:34.681Z,92.20
2023-04-06T02:59:07.021Z,92.30
2023-04-06T02:59:39.547Z,92.20
2023-04-06T03:00:18.791Z,92.60
2023-04-06T03:00:50.607Z,92.50
2023-04-06T03:01:22.478Z,92.60
2023-04-06T03:02:00.056Z,92.40
2023-04-06T03:02:32.140Z,92.70
2023-04-06T03:03:11.458Z,92.70
2023-04-06T03:03:43.515Z,92.60
2023-04-06T03:04:23.795Z,92.30
2023-04-06T03:04:56.367Z,92.50
2023-04-06T03:05:34.381Z,92.20
2023-04-06T03:06:06.715Z,92.60
2023-04-06T03:06:38.925Z,92.50
2023-04-06T03:07:20.715Z,92.50
2023-04-06T03:07:52.536Z,92.60
2023-04-06T03:08:33.287Z,92.50
2023-04-06T03:09:05.060Z,92.50
2023-04-06T03:09:39.475Z,92.30
2023-04-06T03:11:16.116Z,92.40
2023-04-06T03:11:48.991Z,92.70
2023-04-06T03:12:21.528Z,92.60
2023-04-06T03:13:12.578Z,92.60
2023-04-06T03:14:00.292Z,92.80
2023-04-06T03:14:32.123Z,92.60
2023-04-06T03:15:04.300Z,92.80
2023-04-06T03:15:36.237Z,92.80
2023-04-06T03:16:17.802Z,92.90
2023-04-06T03:16:50.312Z,92.60
2023-04-06T03:17:26.079Z,92.50
2023-04-06T03:18:00.656Z,92.40
2023-04-06T03:18:47.971Z,92.80
2023-04-06T03:19:19.802Z,92.70
2023-04-06T03:19:52.098Z,92.60
2023-04-06T03:20:24.305Z,92.70
2023-04-06T03:20:56.215Z,92.70
2023-04-06T03:21:33.088Z,92.90
2023-04-06T03:22:05.067Z,92.60
2023-04-06T03:22:37.010Z,92.60
2023-04-06T03:23:09.415Z,92.90
2023-04-06T03:23:45.415Z,92.80
2023-04-06T03:24:17.208Z,92.50
2023-04-06T03:24:48.996Z,92.70
2023-04-06T03:25:20.890Z,93.30
2023-04-06T03:25:52.712Z,92.60
2023-04-06T03:26:26.647Z,92.70
2023-04-06T03:26:58.638Z,93.10
2023-04-06T03:27:30.576Z,92.90
2023-04-06T03:28:02.588Z,93.10
2023-04-06T03:28:35.799Z,93.10
2023-04-06T03:29:10.364Z,92.90
2023-04-06T03:29:42.586Z,92.70
2023-04-06T03:30:18.626Z,92.90
2023-04-06T03:30:50.713Z,93.00
2023-04-06T03:31:28.336Z,93.20
2023-04-06T03:32:06.638Z,93.20
2023-04-06T03:32:43.411Z,92.80
2023-04-06T03:33:15.229Z,93.10
2023-04-06T03:33:56.152Z,93.20
2023-04-06T03:34:32.065Z,93.20
2023-04-06T03:35:04.067Z,93.00
2023-04-06T03:35:37.854Z,93.10
2023-04-06T03:36:10.577Z,92.90
2023-04-06T03:36:47.160Z,93.10
2023-04-06T03:37:57.519Z,93.20
2023-04-06T03:38:29.877Z,93.00
2023-04-06T03:39:02.132Z,92.70
2023-04-06T03:40:09.658Z,92.80
2023-04-06T03:40:41.431Z,93.20
2023-04-06T03:41:13.997Z,93.10
2023-04-06T03:41:49.988Z,93.10
2023-04-06T03:42:38.832Z,93.30
2023-04-06T03:43:16.363Z,93.20
2023-04-06T03:43:48.570Z,93.50
2023-04-06T03:44:20.720Z,92.70
2023-04-06T03:44:52.446Z,93.00
2023-04-06T03:45:24.652Z,93.20
2023-04-06T03:45:56.469Z,92.90
2023-04-06T03:46:28.534Z,93.20
2023-04-06T03:47:03.278Z,93.10
2023-04-06T03:47:35.778Z,93.20
2023-04-06T03:48:10.520Z,93.00
2023-04-06T03:48:43.661Z,93.20
2023-04-06T03:49:16.072Z,93.10
2023-04-06T03:49:51.955Z,93.00
2023-04-06T03:50:23.735Z,93.10
2023-04-06T03:50:55.668Z,93.10
2023-04-06T03:51:28.588Z,93.20
2023-04-06T03:52:01.487Z,93.10
2023-04-06T03:52:35.758Z,92.90
2023-04-06T03:53:07.564Z,93.90
2023-04-06T03:53:39.416Z,92.60
2023-04-06T03:54:11.214Z,93.20
2023-04-06T03:54:43.048Z,93.10
2023-04-06T03:55:16.515Z,93.20
2023-04-06T03:55:48.352Z,93.00
2023-04-06T03:56:20.938Z,93.20
2023-04-06T03:56:52.765Z,92.90
2023-04-06T03:57:56.985Z,92.80
2023-04-06T03:58:30.182Z,93.20
2023-04-06T03:59:02.909Z,93.20
2023-04-06T03:59:34.848Z,93.20
2023-04-06T04:00:07.395Z,93.20
2023-04-06T04:00:44.396Z,93.10
2023-04-06T04:01:16.413Z,92.90
2023-04-06T04:01:48.359Z,93.10
2023-04-06T04:02:20.453Z,92.80
2023-04-06T04:02:52.383Z,93.10
2023-04-06T04:03:28.154Z,93.20
2023-04-06T04:04:00.629Z,93.10
2023-04-06T04:04:32.593Z,93.20
2023-04-06T04:05:04.714Z,93.30
2023-04-06T04:05:36.781Z,93.00
2023-04-06T04:06:08.901Z,93.20
2023-04-06T04:06:40.814Z,93.20
2023-04-06T04:07:13.568Z,93.20
2023-04-06T04:07:45.680Z,93.20
2023-04-06T04:08:17.661Z,93.30
2023-04-06T04:08:49.477Z,93.20
2023-04-06T04:09:21.264Z,93.30
2023-04-06T04:09:53.092Z,92.90
2023-04-06T04:10:25.195Z,92.80
2023-04-06T04:10:57.378Z,93.10
2023-04-06T04:11:29.315Z,93.20
2023-04-06T04:12:03.685Z,93.20
2023-04-06T04:12:37.151Z,93.00
2023-04-06T04:13:09.041Z,93.10
2023-04-06T04:13:40.879Z,93.40
2023-04-06T04:14:14.029Z,93.20
2023-04-06T04:14:45.847Z,93.40
2023-04-06T04:15:17.655Z,93.50
2023-04-06T04:15:49.550Z,93.50
2023-04-06T04:16:21.410Z,93.50
2023-04-06T04:16:53.428Z,93.50
2023-04-06T04:17:26.077Z,93.50
2023-04-06T04:17:58.019Z,93.20
2023-04-06T04:18:29.913Z,93.10
2023-04-06T04:19:01.840Z,93.10
2023-04-06T04:19:34.348Z,93.50
2023-04-06T04:20:06.875Z,93.50
2023-04-06T04:20:38.793Z,93.30
2023-04-06T04:21:10.923Z,93.40
2023-04-06T04:21:46.945Z,93.40
2023-04-06T04:22:23.303Z,93.30
2023-04-06T04:22:55.400Z,93.20
2023-04-06T04:23:27.310Z,93.50
2023-04-06T04:23:59.367Z,93.20
2023-04-06T04:25:03.453Z,93.30
2023-04-06T04:25:37.527Z,93.20
2023-04-06T04:26:09.820Z,93.40
2023-04-06T04:26:41.717Z,93.20
2023-04-06T04:27:13.522Z,93.40
2023-04-06T04:27:46.160Z,93.40
2023-04-06T04:28:17.980Z,93.50
2023-04-06T04:28:51.086Z,93.20
2023-04-06T04:29:23.475Z,93.70
2023-04-06T04:29:56.488Z,93.20
2023-04-06T04:30:28.408Z,93.60
2023-04-06T04:31:00.406Z,93.50
2023-04-06T04:31:34.747Z,93.60
2023-04-06T04:32:09.443Z,93.60
2023-04-06T04:32:41.498Z,93.60
2023-04-06T04:33:15.013Z,93.30
2023-04-06T04:33:47.618Z,93.50
2023-04-06T04:34:59.337Z,93.40
2023-04-06T04:35:41.914Z,93.30
2023-04-06T04:36:16.039Z,93.60
2023-04-06T04:36:49.208Z,93.50
2023-04-06T04:37:28.743Z,93.30
2023-04-06T04:38:01.708Z,93.50
2023-04-06T04:38:33.669Z,93.70
2023-04-06T04:39:06.384Z,93.40
2023-04-06T04:39:43.201Z,93.40
2023-04-06T04:40:15.440Z,93.70
2023-04-06T04:40:55.891Z,93.50
2023-04-06T04:42:00.554Z,93.20
2023-04-06T04:42:33.477Z,93.20
2023-04-06T04:43:06.608Z,93.40
2023-04-06T04:43:39.932Z,93.60
2023-04-06T04:44:11.840Z,93.60
2023-04-06T04:44:43.660Z,93.60
2023-04-06T04:45:15.693Z,93.30
2023-04-06T04:45:47.897Z,93.60
2023-04-06T04:46:32.005Z,93.60
2023-04-06T04:47:03.824Z,93.70
2023-04-06T04:47:45.335Z,93.40
2023-04-06T04:48:19.352Z,93.40
2023-04-06T04:48:57.288Z,93.50
2023-04-06T04:49:29.153Z,93.50
2023-04-06T04:50:01.238Z,93.40
2023-04-06T04:50:33.564Z,93.50
2023-04-06T04:51:06.669Z,93.70
2023-04-06T04:51:56.389Z,93.60
2023-04-06T04:52:35.282Z,93.70
2023-04-06T04:53:19.345Z,93.60
2023-04-06T04:53:51.602Z,93.40
2023-04-06T04:54:28.127Z,93.20
2023-04-06T04:55:00.190Z,93.40
2023-04-06T04:55:34.325Z,93.40
2023-04-06T04:56:07.145Z,93.20
2023-04-06T04:56:38.932Z,93.40
2023-04-06T04:57:30.987Z,93.30
2023-04-06T04:58:03.482Z,93.40
2023-04-06T04:58:49.634Z,93.40
2023-04-06T04:59:21.664Z,93.50
2023-04-06T05:00:00.608Z,94.00
2023-04-06T05:00:32.571Z,93.70
2023-04-06T05:01:05.873Z,93.60
2023-04-06T05:01:51.294Z,93.40
2023-04-06T05:02:27.241Z,93.20
2023-04-06T05:03:21.504Z,93.50
2023-04-06T05:04:01.116Z,93.60
2023-04-06T05:04:33.220Z,93.50
2023-04-06T05:05:08.264Z,93.60
2023-04-06T05:05:40.196Z,93.60
2023-04-06T05:06:13.463Z,93.50
2023-04-06T05:06:46.652Z,93.40
2023-04-06T05:07:19.678Z,93.60
2023-04-06T05:07:51.705Z,93.40
2023-04-06T05:08:33.033Z,93.70
2023-04-06T05:09:05.912Z,93.40
2023-04-06T05:09:38.023Z,93.60
2023-04-06T05:10:10.834Z,93.40
2023-04-06T05:10:51.681Z,93.40
2023-04-06T05:11:24.585Z,93.80
2023-04-06T05:12:42.875Z,93.40
2023-04-06T05:13:16.582Z,93.40
2023-04-06T05:13:50.853Z,93.50
2023-04-06T05:14:29.815Z,93.70
2023-04-06T05:15:02.341Z,93.20
2023-04-06T05:15:39.291Z,93.60
2023-04-06T05:16:19.113Z,93.60
2023-04-06T05:16:51.202Z,93.60
2023-04-06T05:17:23.424Z,93.50
2023-04-06T05:17:55.863Z,93.50
2023-04-06T05:18:35.094Z,93.50
2023-04-06T05:19:08.359Z,93.20
2023-04-06T05:19:46.528Z,93.70
2023-04-06T05:20:21.399Z,93.50
2023-04-06T05:20:56.117Z,93.70
2023-04-06T05:21:34.737Z,93.50
2023-04-06T05:22:10.932Z,93.40
2023-04-06T05:22:46.126Z,93.70
2023-04-06T05:23:18.061Z,93.50
2023-04-06T05:23:49.807Z,93.30
2023-04-06T05:24:21.587Z,93.20
2023-04-06T05:24:54.235Z,93.60
2023-04-06T05:25:26.286Z,93.50
2023-04-06T05:26:01.141Z,93.50
2023-04-06T05:26:33.016Z,93.20
2023-04-06T05:27:11.069Z,93.20
2023-04-06T05:27:43.688Z,93.40
2023-04-06T05:28:30.581Z,93.60
2023-04-06T05:29:02.564Z,93.20
2023-04-06T05:29:37.891Z,93.50
2023-04-06T05:30:09.923Z,93.60
2023-04-06T05:30:47.142Z,93.60
2023-04-06T05:31:20.482Z,93.60
2023-04-06T05:31:55.467Z,93.60
2023-04-06T05:32:28.524Z,93.90
2023-04-06T05:33:00.564Z,93.50
2023-04-06T05:33:38.803Z,93.70
2023-04-06T05:34:17.031Z,93.70
2023-04-06T05:34:50.770Z,93.60
2023-04-06T05:35:22.653Z,93.50
2023-04-06T05:35:58.144Z,93.20
2023-04-06T05:36:31.320Z,93.60
2023-04-06T05:37:03.392Z,93.40
2023-04-06T05:37:35.260Z,93.70
2023-04-06T05:38:11.123Z,93.70
2023-04-06T05:38:43.092Z,93.50
2023-04-06T05:39:35.301Z,93.30
2023-04-06T05:40:07.813Z,93.60
2023-04-06T05:40:42.152Z,93.60
2023-04-06T05:41:17.469Z,93.50
2023-04-06T05:41:50.085Z,93.30
2023-04-06T05:42:28.151Z,93.30
2023-04-06T05:43:04.093Z,93.60
2023-04-06T05:43:36.052Z,93.30
2023-04-06T05:44:08.137Z,93.70
2023-04-06T05:44:40.121Z,93.60
2023-04-06T05:45:20.238Z,93.50
2023-04-06T05:45:57.001Z,93.40
2023-04-06T05:46:28.800Z,93.60
2023-04-06T05:47:03.450Z,93.30
2023-04-06T05:47:35.515Z,93.30
2023-04-06T05:48:16.989Z,93.50
2023-04-06T05:48:48.807Z,93.40
2023-04-06T05:49:21.268Z,93.40
2023-04-06T05:49:53.080Z,93.30
2023-04-06T05:50:40.522Z,93.20
2023-04-06T05:51:12.529Z,93.20
2023-04-06T05:51:51.379Z,93.40
2023-04-06T05:52:23.557Z,93.30
2023-04-06T05:52:55.528Z,93.30
2023-04-06T05:53:30.154Z,93.40
2023-04-06T05:54:04.672Z,93.40
2023-04-06T05:54:37.726Z,93.50
2023-04-06T05:55:10.767Z,93.40
2023-04-06T05:55:43.610Z,93.30
2023-04-06T05:56:23.055Z,93.30
2023-04-06T05:56:54.846Z,93.30
2023-04-06T05:57:26.990Z,93.30
2023-04-06T05:57:59.674Z,93.00
2023-04-06T05:58:31.776Z,93.30
2023-04-06T05:59:04.569Z,93.30
2023-04-06T05:59:37.361Z,93.10
2023-04-06T06:00:10.783Z,93.30
2023-04-06T06:00:50.604Z,93.30
2023-04-06T06:01:24.726Z,93.50
2023-04-06T06:01:56.537Z,93.70
2023-04-06T06:02:28.729Z,93.70
2023-04-06T06:03:01.173Z,93.40
2023-04-06T06:03:34.591Z,93.60
2023-04-06T06:04:06.448Z,93.80
2023-04-06T06:04:41.502Z,93.80
2023-04-06T06:05:13.422Z,93.60
2023-04-06T06:05:47.234Z,93.70
2023-04-06T06:06:26.018Z,93.60
2023-04-06T06:07:13.251Z,93.60
2023-04-06T06:07:53.173Z,93.60
2023-04-06T06:08:26.356Z,93.60
2023-04-06T06:09:02.049Z,93.80
2023-04-06T06:09:36.629Z,93.70
2023-04-06T06:10:25.109Z,93.40
2023-04-06T06:10:57.749Z,93.70
2023-04-06T06:11:31.033Z,93.70
2023-04-06T06:12:03.005Z,93.40
2023-04-06T06:12:35.826Z,93.70
2023-04-06T06:13:07.651Z,93.60
2023-04-06T06:13:39.462Z,93.40
2023-04-06T06:14:11.466Z,93.70
2023-04-06T06:14:45.528Z,93.80
2023-04-06T06:15:17.466Z,93.80
2023-04-06T06:15:52.548Z,93.60
2023-04-06T06:16:26.206Z,93.70
2023-04-06T06:16:58.237Z,93.60
2023-04-06T06:17:30.332Z,93.80
2023-04-06T06:18:02.601Z,93.80
2023-04-06T06:18:35.337Z,93.80
2023-04-06T06:19:07.253Z,93.50
2023-04-06T06:19:39.677Z,93.80
2023-04-06T06:20:13.691Z,93.80
2023-04-06T06:20:46.054Z,93.70
2023-04-06T06:21:18.088Z,93.90
2023-04-06T06:21:50.515Z,93.80
2023-04-06T06:22:22.377Z,93.80
2023-04-06T06:22:55.446Z,93.80
2023-04-06T06:23:28.097Z,93.80
2023-04-06T06:23:59.969Z,93.70
2023-04-06T06:24:32.189Z,93.60
2023-04-06T06:25:05.258Z,93.30
2023-04-06T06:25:37.242Z,93.60
2023-04-06T06:26:09.794Z,93.60
2023-04-06T06:26:41.606Z,93.60
2023-04-06T06:27:15.547Z,93.60
2023-04-06T06:27:47.350Z,93.30
2023-04-06T06:28:20.947Z,93.20
2023-04-06T06:28:52.840Z,93.60
2023-04-06T06:29:25.228Z,93.50
2023-04-06T06:29:57.038Z,93.60
2023-04-06T06:30:29.894Z,93.70
2023-04-06T06:31:02.084Z,94.60
2023-04-06T06:31:35.000Z,93.60
2023-04-06T06:32:06.969Z,93.50
2023-04-06T06:32:39.273Z,93.50
2023-04-06T06:33:11.138Z,93.50
2023-04-06T06:33:42.999Z,93.60
2023-04-06T06:34:14.917Z,93.60
2023-04-06T06:34:47.891Z,93.80
2023-04-06T06:35:19.981Z,93.90
2023-04-06T06:35:53.296Z,93.70
2023-04-06T06:36:26.427Z,93.80
2023-04-06T06:36:58.317Z,93.50
2023-04-06T06:37:31.297Z,93.50
2023-04-06T06:38:03.704Z,93.20
2023-04-06T06:38:35.493Z,93.50
2023-04-06T06:39:07.995Z,93.60
2023-04-06T06:39:40.233Z,93.80
2023-04-06T06:40:14.227Z,93.80
2023-04-06T06:40:47.782Z,93.70
2023-04-06T06:41:20.832Z,93.50
2023-04-06T06:41:52.934Z,93.50
2023-04-06T06:42:28.366Z,93.40
2023-04-06T06:43:18.924Z,93.70
2023-04-06T06:44:17.674Z,94.00
2023-04-06T06:44:49.550Z,93.90
2023-04-06T06:45:21.431Z,93.80
2023-04-06T06:45:53.271Z,93.60
2023-04-06T06:46:25.222Z,93.70
2023-04-06T06:46:57.174Z,93.80
2023-04-06T06:47:29.074Z,93.70
2023-04-06T06:48:01.149Z,93.60
2023-04-06T06:48:33.223Z,93.70
2023-04-06T06:49:05.116Z,93.40
2023-04-06T06:49:36.965Z,93.40
2023-04-06T06:50:09.084Z,93.90
2023-04-06T06:50:40.935Z,93.80
2023-04-06T06:51:13.046Z,93.30
2023-04-06T06:51:47.414Z,93.60
2023-04-06T06:52:19.791Z,93.30
2023-04-06T06:52:51.834Z,93.60
2023-04-06T06:53:24.923Z,93.60
2023-04-06T06:53:56.702Z,93.70
2023-04-06T06:54:28.566Z,93.70
2023-04-06T06:55:00.321Z,93.70
2023-04-06T06:55:32.114Z,94.00
2023-04-06T06:56:04.172Z,93.80
2023-04-06T06:56:37.946Z,93.70
2023-04-06T06:57:10.080Z,93.70
2023-04-06T06:57:43.477Z,93.50
2023-04-06T06:58:16.054Z,93.70
2023-04-06T06:58:48.667Z,93.80
2023-04-06T06:59:21.485Z,93.60
2023-04-06T06:59:53.388Z,93.70
2023-04-06T07:00:26.514Z,93.70
2023-04-06T07:01:00.237Z,93.60
2023-04-06T07:01:35.714Z,93.30
2023-04-06T07:02:07.796Z,93.60
2023-04-06T07:02:39.934Z,93.50
2023-04-06T07:03:11.801Z,93.40
2023-04-06T07:03:43.693Z,93.50
2023-04-06T07:04:16.016Z,93.60
2023-04-06T07:04:50.954Z,93.40
2023-04-06T07:05:27.756Z,93.50
2023-04-06T07:06:02.316Z,93.60
2023-04-06T07:06:34.588Z,94.00
2023-04-06T07:07:06.435Z,93.60
2023-04-06T07:07:38.283Z,93.20
2023-04-06T07:08:10.290Z,93.20
2023-04-06T07:08:42.206Z,93.40
2023-04-06T07:09:14.038Z,93.40
2023-04-06T07:09:45.954Z,93.40
2023-04-06T07:10:17.792Z,93.40
2023-04-06T07:10:53.699Z,93.40
2023-04-06T07:11:25.805Z,93.30
2023-04-06T07:11:57.750Z,93.50
2023-04-06T07:12:30.200Z,93.60
2023-04-06T07:13:02.033Z,93.20
2023-04-06T07:13:33.930Z,93.40
2023-04-06T07:14:07.060Z,93.20
2023-04-06T07:14:39.376Z,93.50
2023-04-06T07:15:11.498Z,93.40
2023-04-06T07:15:43.716Z,93.40
2023-04-06T07:16:15.677Z,93.40
2023-04-06T07:16:49.785Z,93.50
2023-04-06T07:17:21.897Z,93.60
2023-04-06T07:17:55.698Z,93.70
2023-04-06T07:18:28.064Z,93.40
2023-04-06T07:18:59.869Z,93.70
2023-04-06T07:19:32.340Z,93.50
2023-04-06T07:20:04.767Z,93.70
2023-04-06T07:20:36.896Z,93.70
2023-04-06T07:21:08.774Z,93.60
2023-04-06T07:21:40.635Z,93.70
2023-04-06T07:22:12.951Z,93.70
2023-04-06T07:22:45.899Z,93.50
2023-04-06T07:23:17.793Z,93.50
2023-04-06T07:23:51.713Z,93.50
2023-04-06T07:24:23.520Z,93.50
2023-04-06T07:24:55.796Z,93.40
2023-04-06T07:25:27.544Z,93.60
2023-04-06T07:25:59.351Z,93.40
2023-04-06T07:26:31.179Z,93.50
2023-04-06T07:27:02.999Z,94.20
2023-04-06T07:27:34.922Z,93.50
2023-04-06T07:28:07.228Z,93.50
2023-04-06T07:28:39.397Z,93.60
2023-04-06T07:29:11.272Z,93.50
2023-04-06T07:29:43.223Z,93.40
2023-04-06T07:30:48.541Z,93.30
2023-04-06T07:31:21.261Z,93.60
2023-04-06T07:31:53.566Z,93.50
2023-04-06T07:32:25.449Z,93.50
2023-04-06T07:32:58.071Z,93.50
2023-04-06T07:33:30.927Z,93.50
2023-04-06T07:34:03.231Z,93.70
2023-04-06T07:34:35.094Z,93.50
2023-04-06T07:35:07.322Z,93.20
2023-04-06T07:36:12.661Z,93.20
2023-04-06T07:36:45.641Z,93.50
2023-04-06T07:37:17.486Z,93.50
2023-04-06T07:37:49.664Z,93.60
2023-04-06T07:38:21.506Z,93.20
2023-04-06T07:38:53.682Z,93.50
2023-04-06T07:39:27.702Z,93.50
2023-04-06T07:40:00.854Z,93.40
2023-04-06T07:40:33.767Z,93.50
2023-04-06T07:41:05.968Z,93.60
2023-04-06T07:41:38.286Z,93.60
2023-04-06T07:42:10.124Z,93.50
2023-04-06T07:42:42.233Z,93.60
2023-04-06T07:43:14.736Z,93.70
2023-04-06T07:43:46.887Z,93.70
2023-04-06T07:44:19.028Z,93.70
2023-04-06T07:44:51.686Z,93.60
2023-04-06T07:45:23.523Z,94.40
2023-04-06T07:45:56.664Z,93.40
2023-04-06T07:46:28.691Z,93.60